sensor_id;sensor_type;location;lat;lon;timestamp;temperature;humidity
3713;DHT22;1872;51.406;6.856;2022-10-16T00:01:11;13.40;99.90
3713;DHT22;1872;51.406;6.856;2022-10-16T00:03:41;13.30;99.90
3713;DHT22;1872;51.406;6.856;2022-10-16T00:06:08;13.30;99.90
3713;DHT22;1872;51.406;6.856;2022-10-16T00:08:35;13.30;99.90
3713;DHT22;1872;51.406;6.856;2022-10-16T00:11:07;13.30;99.90
3713;DHT22;1872;51.406;6.856;2022-10-16T00:13:34;13.30;99.90
3713;DHT22;1872;51.406;6.856;2022-10-16T00:16:01;13.30;99.90
3713;DHT22;1872;51.406;6.856;2022-10-16T00:18:27;13.30;99.90
3713;DHT22;1872;51.406;6.856;2022-10-16T00:20:53;13.30;99.90
3713;DHT22;1872;51.406;6.856;2022-10-16T00:23:20;13.30;99.90
3713;DHT22;1872;51.406;6.856;2022-10-16T00:25:54;13.20;99.90
3713;DHT22;1872;51.406;6.856;2022-10-16T00:28:20;13.20;99.90
3713;DHT22;1872;51.406;6.856;2022-10-16T00:30:46;13.20;99.90
3713;DHT22;1872;51.406;6.856;2022-10-16T00:33:12;13.20;99.90
3713;DHT22;1872;51.406;6.856;2022-10-16T00:35:37;13.20;99.90
3713;DHT22;1872;51.406;6.856;2022-10-16T00:38:03;13.20;99.90
3713;DHT22;1872;51.406;6.856;2022-10-16T00:40:28;13.20;99.90
3713;DHT22;1872;51.406;6.856;2022-10-16T00:42:55;13.10;99.90
3713;DHT22;1872;51.406;6.856;2022-10-16T00:45:20;13.10;99.90
3713;DHT22;1872;51.406;6.856;2022-10-16T00:47:47;13.20;99.90
3713;DHT22;1872;51.406;6.856;2022-10-16T00:50:32;13.10;99.90
3713;DHT22;1872;51.406;6.856;2022-10-16T00:52:59;13.10;99.90
3713;DHT22;1872;51.406;6.856;2022-10-16T00:55:26;13.10;99.90
3713;DHT22;1872;51.406;6.856;2022-10-16T00:57:54;13.10;99.90
3713;DHT22;1872;51.406;6.856;2022-10-16T01:00:25;13.10;99.90
3713;DHT22;1872;51.406;6.856;2022-10-16T01:02:54;13.10;99.90
3713;DHT22;1872;51.406;6.856;2022-10-16T01:05:22;13.10;99.90
3713;DHT22;1872;51.406;6.856;2022-10-16T01:08:14;13.10;99.90
3713;DHT22;1872;51.406;6.856;2022-10-16T01:10:54;13.10;99.90
3713;DHT22;1872;51.406;6.856;2022-10-16T01:13:27;13.10;99.90
3713;DHT22;1872;51.406;6.856;2022-10-16T01:18:35;13.00;99.90
3713;DHT22;1872;51.406;6.856;2022-10-16T01:21:47;13.00;99.90
3713;DHT22;1872;51.406;6.856;2022-10-16T01:31:59;13.00;99.90
3713;DHT22;1872;51.406;6.856;2022-10-16T01:34:45;13.00;99.90
3713;DHT22;1872;51.406;6.856;2022-10-16T01:37:15;13.00;99.90
3713;DHT22;1872;51.406;6.856;2022-10-16T01:39:45;13.00;99.90
3713;DHT22;1872;51.406;6.856;2022-10-16T01:42:20;13.00;99.90
3713;DHT22;1872;51.406;6.856;2022-10-16T01:44:47;13.00;99.90
3713;DHT22;1872;51.406;6.856;2022-10-16T01:47:15;13.00;99.90
3713;DHT22;1872;51.406;6.856;2022-10-16T01:49:43;13.00;99.90
3713;DHT22;1872;51.406;6.856;2022-10-16T01:52:14;13.10;99.90
3713;DHT22;1872;51.406;6.856;2022-10-16T01:54:43;13.10;99.90
3713;DHT22;1872;51.406;6.856;2022-10-16T01:57:12;13.10;99.90
3713;DHT22;1872;51.406;6.856;2022-10-16T01:59:44;13.10;99.90
3713;DHT22;1872;51.406;6.856;2022-10-16T02:02:11;13.10;99.90
3713;DHT22;1872;51.406;6.856;2022-10-16T02:04:41;13.10;99.90
3713;DHT22;1872;51.406;6.856;2022-10-16T02:07:08;13.10;99.90
3713;DHT22;1872;51.406;6.856;2022-10-16T02:09:34;13.10;99.90
3713;DHT22;1872;51.406;6.856;2022-10-16T02:12:06;13.10;99.90
3713;DHT22;1872;51.406;6.856;2022-10-16T02:14:33;13.10;99.90
3713;DHT22;1872;51.406;6.856;2022-10-16T02:16:59;13.10;99.90
3713;DHT22;1872;51.406;6.856;2022-10-16T02:19:24;13.00;99.90
3713;DHT22;1872;51.406;6.856;2022-10-16T02:22:15;13.00;99.90
3713;DHT22;1872;51.406;6.856;2022-10-16T02:24:43;13.00;99.90
3713;DHT22;1872;51.406;6.856;2022-10-16T02:27:25;13.00;99.90
3713;DHT22;1872;51.406;6.856;2022-10-16T02:29:58;13.00;99.90
3713;DHT22;1872;51.406;6.856;2022-10-16T02:32:30;13.00;99.90
3713;DHT22;1872;51.406;6.856;2022-10-16T02:34:57;13.00;99.90
3713;DHT22;1872;51.406;6.856;2022-10-16T02:37:24;13.00;99.90
3713;DHT22;1872;51.406;6.856;2022-10-16T02:39:51;13.00;99.90
3713;DHT22;1872;51.406;6.856;2022-10-16T02:42:18;13.10;99.90
3713;DHT22;1872;51.406;6.856;2022-10-16T02:44:44;13.10;99.90
3713;DHT22;1872;51.406;6.856;2022-10-16T02:47:09;13.10;99.90
3713;DHT22;1872;51.406;6.856;2022-10-16T02:49:35;13.10;99.90
3713;DHT22;1872;51.406;6.856;2022-10-16T02:52:01;13.20;99.90
3713;DHT22;1872;51.406;6.856;2022-10-16T02:54:26;13.20;99.90
3713;DHT22;1872;51.406;6.856;2022-10-16T02:56:52;13.20;99.90
3713;DHT22;1872;51.406;6.856;2022-10-16T02:59:18;13.20;99.90
3713;DHT22;1872;51.406;6.856;2022-10-16T03:01:43;13.20;99.90
3713;DHT22;1872;51.406;6.856;2022-10-16T03:04:09;13.20;99.90
3713;DHT22;1872;51.406;6.856;2022-10-16T03:06:35;13.20;99.90
3713;DHT22;1872;51.406;6.856;2022-10-16T03:09:01;13.20;99.90
3713;DHT22;1872;51.406;6.856;2022-10-16T03:11:27;13.20;99.90
3713;DHT22;1872;51.406;6.856;2022-10-16T03:13:53;13.20;99.90
3713;DHT22;1872;51.406;6.856;2022-10-16T03:16:19;13.20;99.90
3713;DHT22;1872;51.406;6.856;2022-10-16T03:18:48;13.20;99.90
3713;DHT22;1872;51.406;6.856;2022-10-16T03:21:15;13.20;99.90
3713;DHT22;1872;51.406;6.856;2022-10-16T03:23:40;13.20;99.90
3713;DHT22;1872;51.406;6.856;2022-10-16T03:26:06;13.20;99.90
3713;DHT22;1872;51.406;6.856;2022-10-16T03:28:32;13.20;99.90
3713;DHT22;1872;51.406;6.856;2022-10-16T03:30:57;13.20;99.90
3713;DHT22;1872;51.406;6.856;2022-10-16T03:33:23;13.20;99.90
3713;DHT22;1872;51.406;6.856;2022-10-16T03:35:53;13.10;99.90
3713;DHT22;1872;51.406;6.856;2022-10-16T03:38:19;13.10;99.90
3713;DHT22;1872;51.406;6.856;2022-10-16T03:40:45;13.10;99.90
3713;DHT22;1872;51.406;6.856;2022-10-16T03:43:11;13.10;99.90
3713;DHT22;1872;51.406;6.856;2022-10-16T03:45:37;13.10;99.90
3713;DHT22;1872;51.406;6.856;2022-10-16T03:48:02;13.10;99.90
3713;DHT22;1872;51.406;6.856;2022-10-16T03:50:29;13.10;99.90
3713;DHT22;1872;51.406;6.856;2022-10-16T03:52:54;13.00;99.90
3713;DHT22;1872;51.406;6.856;2022-10-16T03:55:20;13.00;99.90
3713;DHT22;1872;51.406;6.856;2022-10-16T03:57:46;13.00;99.90
3713;DHT22;1872;51.406;6.856;2022-10-16T04:00:12;12.90;99.90
3713;DHT22;1872;51.406;6.856;2022-10-16T04:02:38;13.00;99.90
3713;DHT22;1872;51.406;6.856;2022-10-16T04:05:04;12.90;99.90
3713;DHT22;1872;51.406;6.856;2022-10-16T04:07:30;12.90;99.90
3713;DHT22;1872;51.406;6.856;2022-10-16T04:09:55;12.90;99.90
3713;DHT22;1872;51.406;6.856;2022-10-16T04:12:22;12.90;99.90
3713;DHT22;1872;51.406;6.856;2022-10-16T04:14:48;12.90;99.90
3713;DHT22;1872;51.406;6.856;2022-10-16T04:17:13;12.90;99.90
3713;DHT22;1872;51.406;6.856;2022-10-16T04:19:39;12.80;99.90
3713;DHT22;1872;51.406;6.856;2022-10-16T04:22:04;12.80;99.90
3713;DHT22;1872;51.406;6.856;2022-10-16T04:24:30;12.80;99.90
3713;DHT22;1872;51.406;6.856;2022-10-16T04:26:56;12.80;99.90
3713;DHT22;1872;51.406;6.856;2022-10-16T04:29:22;12.70;99.90
3713;DHT22;1872;51.406;6.856;2022-10-16T04:31:47;12.70;99.90
3713;DHT22;1872;51.406;6.856;2022-10-16T04:34:13;12.70;99.90
3713;DHT22;1872;51.406;6.856;2022-10-16T04:36:38;12.70;99.90
3713;DHT22;1872;51.406;6.856;2022-10-16T04:39:04;12.70;99.90
3713;DHT22;1872;51.406;6.856;2022-10-16T04:41:30;12.70;99.90
3713;DHT22;1872;51.406;6.856;2022-10-16T04:43:55;12.70;99.90
3713;DHT22;1872;51.406;6.856;2022-10-16T04:46:21;12.60;99.90
3713;DHT22;1872;51.406;6.856;2022-10-16T04:48:47;12.60;99.90
3713;DHT22;1872;51.406;6.856;2022-10-16T04:51:13;12.60;99.90
3713;DHT22;1872;51.406;6.856;2022-10-16T04:53:39;12.60;99.90
3713;DHT22;1872;51.406;6.856;2022-10-16T04:56:05;12.60;99.90
3713;DHT22;1872;51.406;6.856;2022-10-16T04:58:30;12.60;99.90
3713;DHT22;1872;51.406;6.856;2022-10-16T05:00:56;12.60;99.90
3713;DHT22;1872;51.406;6.856;2022-10-16T05:03:22;12.60;99.90
3713;DHT22;1872;51.406;6.856;2022-10-16T05:05:47;12.60;99.90
3713;DHT22;1872;51.406;6.856;2022-10-16T05:08:14;12.60;99.90
3713;DHT22;1872;51.406;6.856;2022-10-16T05:10:44;12.60;99.90
3713;DHT22;1872;51.406;6.856;2022-10-16T05:13:10;12.60;99.90
3713;DHT22;1872;51.406;6.856;2022-10-16T05:15:36;12.60;99.90
3713;DHT22;1872;51.406;6.856;2022-10-16T05:18:02;12.60;99.90
3713;DHT22;1872;51.406;6.856;2022-10-16T05:20:28;12.60;99.90
3713;DHT22;1872;51.406;6.856;2022-10-16T05:22:54;12.60;99.90
3713;DHT22;1872;51.406;6.856;2022-10-16T05:25:19;12.60;99.90
3713;DHT22;1872;51.406;6.856;2022-10-16T05:27:48;12.60;99.90
3713;DHT22;1872;51.406;6.856;2022-10-16T05:30:15;12.70;99.90
3713;DHT22;1872;51.406;6.856;2022-10-16T05:32:41;12.60;99.90
3713;DHT22;1872;51.406;6.856;2022-10-16T05:35:07;12.70;99.90
3713;DHT22;1872;51.406;6.856;2022-10-16T05:37:32;12.70;99.90
3713;DHT22;1872;51.406;6.856;2022-10-16T05:39:58;12.70;99.90
3713;DHT22;1872;51.406;6.856;2022-10-16T05:42:24;12.70;99.90
3713;DHT22;1872;51.406;6.856;2022-10-16T05:44:49;12.70;99.90
3713;DHT22;1872;51.406;6.856;2022-10-16T05:47:15;12.70;99.90
3713;DHT22;1872;51.406;6.856;2022-10-16T05:49:40;12.70;99.90
3713;DHT22;1872;51.406;6.856;2022-10-16T05:52:06;12.70;99.90
3713;DHT22;1872;51.406;6.856;2022-10-16T05:54:32;12.70;99.90
3713;DHT22;1872;51.406;6.856;2022-10-16T05:56:57;12.70;99.90
3713;DHT22;1872;51.406;6.856;2022-10-16T05:59:23;12.60;99.90
3713;DHT22;1872;51.406;6.856;2022-10-16T06:01:49;12.60;99.90
3713;DHT22;1872;51.406;6.856;2022-10-16T06:04:14;12.60;99.90
3713;DHT22;1872;51.406;6.856;2022-10-16T06:06:40;12.60;99.90
3713;DHT22;1872;51.406;6.856;2022-10-16T06:09:06;12.60;99.90
3713;DHT22;1872;51.406;6.856;2022-10-16T06:11:32;12.60;99.90
3713;DHT22;1872;51.406;6.856;2022-10-16T06:14:00;12.60;99.90
3713;DHT22;1872;51.406;6.856;2022-10-16T06:16:28;12.60;99.90
3713;DHT22;1872;51.406;6.856;2022-10-16T06:18:54;12.60;99.90
3713;DHT22;1872;51.406;6.856;2022-10-16T06:21:23;12.60;99.90
3713;DHT22;1872;51.406;6.856;2022-10-16T06:23:53;12.60;99.90
3713;DHT22;1872;51.406;6.856;2022-10-16T06:26:21;12.60;99.90
3713;DHT22;1872;51.406;6.856;2022-10-16T06:28:48;12.60;99.90
3713;DHT22;1872;51.406;6.856;2022-10-16T06:31:15;12.60;99.90
3713;DHT22;1872;51.406;6.856;2022-10-16T06:33:41;12.60;99.90
3713;DHT22;1872;51.406;6.856;2022-10-16T06:36:12;12.60;99.90
3713;DHT22;1872;51.406;6.856;2022-10-16T06:38:38;12.60;99.90
3713;DHT22;1872;51.406;6.856;2022-10-16T06:41:05;12.60;99.90
3713;DHT22;1872;51.406;6.856;2022-10-16T06:43:32;12.70;99.90
3713;DHT22;1872;51.406;6.856;2022-10-16T06:45:59;12.70;99.90
3713;DHT22;1872;51.406;6.856;2022-10-16T06:48:25;12.70;99.90
3713;DHT22;1872;51.406;6.856;2022-10-16T06:53:24;12.80;99.90
3713;DHT22;1872;51.406;6.856;2022-10-16T06:55:50;12.90;99.90
3713;DHT22;1872;51.406;6.856;2022-10-16T06:58:16;12.90;99.90
3713;DHT22;1872;51.406;6.856;2022-10-16T07:00:41;12.90;99.90
3713;DHT22;1872;51.406;6.856;2022-10-16T07:03:07;13.00;99.90
3713;DHT22;1872;51.406;6.856;2022-10-16T07:05:43;13.00;99.90
3713;DHT22;1872;51.406;6.856;2022-10-16T07:08:09;13.00;99.90
3713;DHT22;1872;51.406;6.856;2022-10-16T07:10:35;13.00;99.90
3713;DHT22;1872;51.406;6.856;2022-10-16T07:13:01;13.00;99.90
3713;DHT22;1872;51.406;6.856;2022-10-16T07:15:27;13.10;99.90
3713;DHT22;1872;51.406;6.856;2022-10-16T07:17:53;13.10;99.90
3713;DHT22;1872;51.406;6.856;2022-10-16T07:20:19;13.10;99.90
3713;DHT22;1872;51.406;6.856;2022-10-16T07:22:45;13.00;99.90
3713;DHT22;1872;51.406;6.856;2022-10-16T07:25:10;13.00;99.90
3713;DHT22;1872;51.406;6.856;2022-10-16T07:27:37;13.00;99.90
3713;DHT22;1872;51.406;6.856;2022-10-16T07:30:03;13.00;99.90
3713;DHT22;1872;51.406;6.856;2022-10-16T07:32:29;13.00;99.90
3713;DHT22;1872;51.406;6.856;2022-10-16T07:34:55;13.00;99.90
3713;DHT22;1872;51.406;6.856;2022-10-16T07:37:21;13.00;99.90
3713;DHT22;1872;51.406;6.856;2022-10-16T07:39:47;13.10;99.90
3713;DHT22;1872;51.406;6.856;2022-10-16T07:42:13;13.10;99.90
3713;DHT22;1872;51.406;6.856;2022-10-16T07:44:39;13.20;99.90
3713;DHT22;1872;51.406;6.856;2022-10-16T07:47:05;13.20;99.90
3713;DHT22;1872;51.406;6.856;2022-10-16T07:49:31;13.30;99.90
3713;DHT22;1872;51.406;6.856;2022-10-16T07:51:57;13.30;99.90
3713;DHT22;1872;51.406;6.856;2022-10-16T07:54:22;13.40;99.90
3713;DHT22;1872;51.406;6.856;2022-10-16T07:56:48;13.50;99.90
3713;DHT22;1872;51.406;6.856;2022-10-16T07:59:14;13.60;99.90
3713;DHT22;1872;51.406;6.856;2022-10-16T08:01:39;13.70;99.90
3713;DHT22;1872;51.406;6.856;2022-10-16T08:04:08;13.80;99.90
3713;DHT22;1872;51.406;6.856;2022-10-16T08:06:39;14.00;99.90
3713;DHT22;1872;51.406;6.856;2022-10-16T08:09:06;14.10;99.90
3713;DHT22;1872;51.406;6.856;2022-10-16T08:11:33;14.30;99.90
3713;DHT22;1872;51.406;6.856;2022-10-16T08:13:58;14.40;99.90
3713;DHT22;1872;51.406;6.856;2022-10-16T08:16:24;14.60;99.90
3713;DHT22;1872;51.406;6.856;2022-10-16T08:18:50;14.80;99.90
3713;DHT22;1872;51.406;6.856;2022-10-16T08:21:21;14.90;99.90
3713;DHT22;1872;51.406;6.856;2022-10-16T08:23:58;15.10;99.90
3713;DHT22;1872;51.406;6.856;2022-10-16T08:26:26;15.20;99.90
3713;DHT22;1872;51.406;6.856;2022-10-16T08:28:52;15.40;99.90
3713;DHT22;1872;51.406;6.856;2022-10-16T08:31:18;15.60;99.90
3713;DHT22;1872;51.406;6.856;2022-10-16T08:33:45;15.70;99.90
3713;DHT22;1872;51.406;6.856;2022-10-16T08:36:15;15.80;99.90
3713;DHT22;1872;51.406;6.856;2022-10-16T08:38:41;15.90;99.90
3713;DHT22;1872;51.406;6.856;2022-10-16T08:41:17;16.10;99.90
3713;DHT22;1872;51.406;6.856;2022-10-16T08:49:02;16.50;99.90
3713;DHT22;1872;51.406;6.856;2022-10-16T08:51:31;16.60;99.90
3713;DHT22;1872;51.406;6.856;2022-10-16T08:54:22;16.70;99.90
3713;DHT22;1872;51.406;6.856;2022-10-16T08:56:55;16.80;99.90
3713;DHT22;1872;51.406;6.856;2022-10-16T08:59:21;16.80;99.90
3713;DHT22;1872;51.406;6.856;2022-10-16T09:01:50;16.80;99.90
3713;DHT22;1872;51.406;6.856;2022-10-16T09:15:21;16.70;99.90
3713;DHT22;1872;51.406;6.856;2022-10-16T09:25:31;16.50;99.90
3713;DHT22;1872;51.406;6.856;2022-10-16T09:27:57;16.50;99.90
3713;DHT22;1872;51.406;6.856;2022-10-16T09:30:27;16.50;99.90
3713;DHT22;1872;51.406;6.856;2022-10-16T09:32:55;16.60;99.90
3713;DHT22;1872;51.406;6.856;2022-10-16T09:35:31;16.60;99.90
3713;DHT22;1872;51.406;6.856;2022-10-16T09:37:57;16.50;99.90
3713;DHT22;1872;51.406;6.856;2022-10-16T09:40:30;16.60;99.90
3713;DHT22;1872;51.406;6.856;2022-10-16T09:45:39;16.70;99.90
3713;DHT22;1872;51.406;6.856;2022-10-16T09:48:12;16.70;99.90
3713;DHT22;1872;51.406;6.856;2022-10-16T09:50:38;16.70;99.90
3713;DHT22;1872;51.406;6.856;2022-10-16T09:53:14;16.70;99.90
3713;DHT22;1872;51.406;6.856;2022-10-16T09:55:50;16.80;99.90
3713;DHT22;1872;51.406;6.856;2022-10-16T09:58:16;16.90;99.90
3713;DHT22;1872;51.406;6.856;2022-10-16T10:00:48;17.00;99.90
3713;DHT22;1872;51.406;6.856;2022-10-16T10:03:39;17.00;99.90
3713;DHT22;1872;51.406;6.856;2022-10-16T10:09:23;17.10;99.90
3713;DHT22;1872;51.406;6.856;2022-10-16T10:11:55;17.10;99.90
3713;DHT22;1872;51.406;6.856;2022-10-16T10:16:47;17.10;99.90
3713;DHT22;1872;51.406;6.856;2022-10-16T10:19:18;17.20;99.90
3713;DHT22;1872;51.406;6.856;2022-10-16T10:21:45;17.20;99.90
3713;DHT22;1872;51.406;6.856;2022-10-16T10:24:12;17.20;99.90
3713;DHT22;1872;51.406;6.856;2022-10-16T10:26:39;17.30;99.90
3713;DHT22;1872;51.406;6.856;2022-10-16T10:29:26;17.40;99.90
3713;DHT22;1872;51.406;6.856;2022-10-16T10:32:03;17.50;99.90
3713;DHT22;1872;51.406;6.856;2022-10-16T10:34:56;17.50;99.90
3713;DHT22;1872;51.406;6.856;2022-10-16T10:37:50;17.50;99.90
3713;DHT22;1872;51.406;6.856;2022-10-16T10:40:27;17.60;99.90
3713;DHT22;1872;51.406;6.856;2022-10-16T10:43:06;17.60;99.90
3713;DHT22;1872;51.406;6.856;2022-10-16T10:45:45;17.70;99.90
3713;DHT22;1872;51.406;6.856;2022-10-16T10:48:31;17.70;99.90
3713;DHT22;1872;51.406;6.856;2022-10-16T10:51:05;17.70;99.90
3713;DHT22;1872;51.406;6.856;2022-10-16T10:59:23;17.80;99.90
3713;DHT22;1872;51.406;6.856;2022-10-16T11:01:59;17.80;99.90
3713;DHT22;1872;51.406;6.856;2022-10-16T11:07:32;17.80;99.90
3713;DHT22;1872;51.406;6.856;2022-10-16T11:10:03;17.90;99.90
3713;DHT22;1872;51.406;6.856;2022-10-16T11:12:52;17.90;99.90
3713;DHT22;1872;51.406;6.856;2022-10-16T11:15:32;17.90;99.90
3713;DHT22;1872;51.406;6.856;2022-10-16T11:18:22;17.80;99.90
3713;DHT22;1872;51.406;6.856;2022-10-16T11:20:59;17.80;99.90
3713;DHT22;1872;51.406;6.856;2022-10-16T11:23:48;17.80;99.90
3713;DHT22;1872;51.406;6.856;2022-10-16T11:26:24;17.80;99.90
3713;DHT22;1872;51.406;6.856;2022-10-16T11:28:56;17.80;99.90
3713;DHT22;1872;51.406;6.856;2022-10-16T11:34:12;17.80;99.90
3713;DHT22;1872;51.406;6.856;2022-10-16T11:39:38;17.80;99.90
3713;DHT22;1872;51.406;6.856;2022-10-16T11:42:13;17.90;99.90
3713;DHT22;1872;51.406;6.856;2022-10-16T11:45:00;17.90;99.90
3713;DHT22;1872;51.406;6.856;2022-10-16T11:47:57;17.90;99.90
3713;DHT22;1872;51.406;6.856;2022-10-16T11:55:43;18.10;99.90
3713;DHT22;1872;51.406;6.856;2022-10-16T11:58:16;18.20;99.90
3713;DHT22;1872;51.406;6.856;2022-10-16T12:00:54;18.20;99.90
3713;DHT22;1872;51.406;6.856;2022-10-16T12:08:59;18.20;99.90
3713;DHT22;1872;51.406;6.856;2022-10-16T12:19:29;18.20;99.90
3713;DHT22;1872;51.406;6.856;2022-10-16T12:21:57;18.20;99.90
3713;DHT22;1872;51.406;6.856;2022-10-16T12:24:41;18.20;99.90
3713;DHT22;1872;51.406;6.856;2022-10-16T12:27:31;18.10;99.90
3713;DHT22;1872;51.406;6.856;2022-10-16T12:30:03;18.00;99.90
3713;DHT22;1872;51.406;6.856;2022-10-16T12:32:32;17.90;99.90
3713;DHT22;1872;51.406;6.856;2022-10-16T12:35:00;17.90;99.90
3713;DHT22;1872;51.406;6.856;2022-10-16T12:37:31;17.90;99.90
3713;DHT22;1872;51.406;6.856;2022-10-16T12:39:59;17.90;99.90
3713;DHT22;1872;51.406;6.856;2022-10-16T12:44:55;17.90;99.90
3713;DHT22;1872;51.406;6.856;2022-10-16T12:49:57;17.90;99.90
3713;DHT22;1872;51.406;6.856;2022-10-16T12:54:59;17.90;99.90
3713;DHT22;1872;51.406;6.856;2022-10-16T12:57:39;17.90;99.90
3713;DHT22;1872;51.406;6.856;2022-10-16T13:00:26;17.90;99.90
3713;DHT22;1872;51.406;6.856;2022-10-16T13:06:08;17.90;99.90
3713;DHT22;1872;51.406;6.856;2022-10-16T13:11:44;17.90;99.90
3713;DHT22;1872;51.406;6.856;2022-10-16T13:22:58;17.80;99.90
3713;DHT22;1872;51.406;6.856;2022-10-16T13:26:28;17.80;99.90
3713;DHT22;1872;51.406;6.856;2022-10-16T13:28:35;17.70;99.90
3713;DHT22;1872;51.406;6.856;2022-10-16T13:31:03;17.60;99.90
3713;DHT22;1872;51.406;6.856;2022-10-16T13:33:38;17.50;99.90
3713;DHT22;1872;51.406;6.856;2022-10-16T13:36:05;17.50;99.90
3713;DHT22;1872;51.406;6.856;2022-10-16T13:38:33;17.50;99.90
3713;DHT22;1872;51.406;6.856;2022-10-16T13:41:02;17.40;99.90
3713;DHT22;1872;51.406;6.856;2022-10-16T13:46:06;17.40;99.90
3713;DHT22;1872;51.406;6.856;2022-10-16T13:48:33;17.40;99.90
3713;DHT22;1872;51.406;6.856;2022-10-16T13:51:14;17.40;99.90
3713;DHT22;1872;51.406;6.856;2022-10-16T13:53:44;17.40;99.90
3713;DHT22;1872;51.406;6.856;2022-10-16T13:56:15;17.50;99.90
3713;DHT22;1872;51.406;6.856;2022-10-16T13:58:42;17.50;99.90
3713;DHT22;1872;51.406;6.856;2022-10-16T14:03:45;17.60;99.90
3713;DHT22;1872;51.406;6.856;2022-10-16T14:06:22;17.70;99.90
3713;DHT22;1872;51.406;6.856;2022-10-16T14:11:25;17.70;99.90
3713;DHT22;1872;51.406;6.856;2022-10-16T14:13:52;17.70;99.90
3713;DHT22;1872;51.406;6.856;2022-10-16T14:16:30;17.70;99.90
3713;DHT22;1872;51.406;6.856;2022-10-16T14:19:04;17.70;99.90
3713;DHT22;1872;51.406;6.856;2022-10-16T14:21:33;17.70;99.90
3713;DHT22;1872;51.406;6.856;2022-10-16T14:23:59;17.60;99.90
3713;DHT22;1872;51.406;6.856;2022-10-16T14:26:28;17.60;99.90
3713;DHT22;1872;51.406;6.856;2022-10-16T14:29:18;17.60;99.90
3713;DHT22;1872;51.406;6.856;2022-10-16T14:31:55;17.60;99.90
3713;DHT22;1872;51.406;6.856;2022-10-16T14:34:33;17.60;99.90
3713;DHT22;1872;51.406;6.856;2022-10-16T14:37:05;17.50;99.90
3713;DHT22;1872;51.406;6.856;2022-10-16T14:39:32;17.50;99.90
3713;DHT22;1872;51.406;6.856;2022-10-16T14:41:58;17.50;99.90
3713;DHT22;1872;51.406;6.856;2022-10-16T14:44:29;17.60;99.90
3713;DHT22;1872;51.406;6.856;2022-10-16T14:46:56;17.50;99.90
3713;DHT22;1872;51.406;6.856;2022-10-16T14:49:23;17.50;99.90
3713;DHT22;1872;51.406;6.856;2022-10-16T14:51:50;17.50;99.90
3713;DHT22;1872;51.406;6.856;2022-10-16T14:54:18;17.40;99.90
3713;DHT22;1872;51.406;6.856;2022-10-16T14:56:54;17.40;99.90
3713;DHT22;1872;51.406;6.856;2022-10-16T14:59:33;17.40;99.90
3713;DHT22;1872;51.406;6.856;2022-10-16T15:02:20;17.40;99.90
3713;DHT22;1872;51.406;6.856;2022-10-16T15:04:48;17.40;99.90
3713;DHT22;1872;51.406;6.856;2022-10-16T15:07:14;17.40;99.90
3713;DHT22;1872;51.406;6.856;2022-10-16T15:09:39;17.30;99.90
3713;DHT22;1872;51.406;6.856;2022-10-16T15:12:05;17.30;99.90
3713;DHT22;1872;51.406;6.856;2022-10-16T15:14:31;17.30;99.90
3713;DHT22;1872;51.406;6.856;2022-10-16T15:16:57;17.30;99.90
3713;DHT22;1872;51.406;6.856;2022-10-16T15:19:23;17.20;99.90
3713;DHT22;1872;51.406;6.856;2022-10-16T15:21:48;17.20;99.90
3713;DHT22;1872;51.406;6.856;2022-10-16T15:24:14;17.20;99.90
3713;DHT22;1872;51.406;6.856;2022-10-16T15:26:41;17.20;99.90
3713;DHT22;1872;51.406;6.856;2022-10-16T15:29:06;17.20;99.90
3713;DHT22;1872;51.406;6.856;2022-10-16T15:31:32;17.20;99.90
3713;DHT22;1872;51.406;6.856;2022-10-16T15:33:58;17.20;99.90
3713;DHT22;1872;51.406;6.856;2022-10-16T15:36:33;17.10;99.90
3713;DHT22;1872;51.406;6.856;2022-10-16T15:39:15;17.10;99.90
3713;DHT22;1872;51.406;6.856;2022-10-16T15:41:41;17.10;99.90
3713;DHT22;1872;51.406;6.856;2022-10-16T15:44:07;17.10;99.90
3713;DHT22;1872;51.406;6.856;2022-10-16T15:46:33;17.10;99.90
3713;DHT22;1872;51.406;6.856;2022-10-16T15:49:00;17.00;99.90
3713;DHT22;1872;51.406;6.856;2022-10-16T15:51:27;17.00;99.90
3713;DHT22;1872;51.406;6.856;2022-10-16T15:53:58;17.00;99.90
3713;DHT22;1872;51.406;6.856;2022-10-16T15:56:24;16.90;99.90
3713;DHT22;1872;51.406;6.856;2022-10-16T15:58:52;16.90;99.90
3713;DHT22;1872;51.406;6.856;2022-10-16T16:01:19;16.90;99.90
3713;DHT22;1872;51.406;6.856;2022-10-16T16:03:45;16.80;99.90
3713;DHT22;1872;51.406;6.856;2022-10-16T16:06:14;16.80;99.90
3713;DHT22;1872;51.406;6.856;2022-10-16T16:08:41;16.80;99.90
3713;DHT22;1872;51.406;6.856;2022-10-16T16:11:12;16.70;99.90
3713;DHT22;1872;51.406;6.856;2022-10-16T16:13:39;16.70;99.90
3713;DHT22;1872;51.406;6.856;2022-10-16T16:16:09;16.70;99.90
3713;DHT22;1872;51.406;6.856;2022-10-16T16:18:36;16.70;99.90
3713;DHT22;1872;51.406;6.856;2022-10-16T16:21:02;16.60;99.90
3713;DHT22;1872;51.406;6.856;2022-10-16T16:23:28;16.60;99.90
3713;DHT22;1872;51.406;6.856;2022-10-16T16:26:24;16.60;99.90
3713;DHT22;1872;51.406;6.856;2022-10-16T16:28:53;16.60;99.90
3713;DHT22;1872;51.406;6.856;2022-10-16T16:31:20;16.60;99.90
3713;DHT22;1872;51.406;6.856;2022-10-16T16:33:46;16.50;99.90
3713;DHT22;1872;51.406;6.856;2022-10-16T16:36:12;16.50;99.90
3713;DHT22;1872;51.406;6.856;2022-10-16T16:38:38;16.40;99.90
3713;DHT22;1872;51.406;6.856;2022-10-16T16:41:13;16.40;99.90
3713;DHT22;1872;51.406;6.856;2022-10-16T16:43:39;16.30;99.90
3713;DHT22;1872;51.406;6.856;2022-10-16T16:46:05;16.30;99.90
3713;DHT22;1872;51.406;6.856;2022-10-16T16:48:32;16.20;99.90
3713;DHT22;1872;51.406;6.856;2022-10-16T16:51:03;16.20;99.90
3713;DHT22;1872;51.406;6.856;2022-10-16T16:53:29;16.20;99.90
3713;DHT22;1872;51.406;6.856;2022-10-16T16:56:00;16.20;99.90
3713;DHT22;1872;51.406;6.856;2022-10-16T16:58:26;16.10;99.90
3713;DHT22;1872;51.406;6.856;2022-10-16T17:00:51;16.10;99.90
3713;DHT22;1872;51.406;6.856;2022-10-16T17:03:17;16.10;99.90
3713;DHT22;1872;51.406;6.856;2022-10-16T17:05:43;16.00;99.90
3713;DHT22;1872;51.406;6.856;2022-10-16T17:08:09;16.00;99.90
3713;DHT22;1872;51.406;6.856;2022-10-16T17:10:42;15.90;99.90
3713;DHT22;1872;51.406;6.856;2022-10-16T17:13:08;15.90;99.90
3713;DHT22;1872;51.406;6.856;2022-10-16T17:15:33;15.90;99.90
3713;DHT22;1872;51.406;6.856;2022-10-16T17:17:59;15.90;99.90
3713;DHT22;1872;51.406;6.856;2022-10-16T17:20:25;15.90;99.90
3713;DHT22;1872;51.406;6.856;2022-10-16T17:22:50;15.80;99.90
3713;DHT22;1872;51.406;6.856;2022-10-16T17:25:16;15.80;99.90
3713;DHT22;1872;51.406;6.856;2022-10-16T17:27:42;15.80;99.90
3713;DHT22;1872;51.406;6.856;2022-10-16T17:30:08;15.80;99.90
3713;DHT22;1872;51.406;6.856;2022-10-16T17:32:33;15.80;99.90
3713;DHT22;1872;51.406;6.856;2022-10-16T17:34:59;15.80;99.90
3713;DHT22;1872;51.406;6.856;2022-10-16T17:37:25;15.80;99.90
3713;DHT22;1872;51.406;6.856;2022-10-16T17:39:51;15.80;99.90
3713;DHT22;1872;51.406;6.856;2022-10-16T17:42:17;15.80;99.90
3713;DHT22;1872;51.406;6.856;2022-10-16T17:44:42;15.90;99.90
3713;DHT22;1872;51.406;6.856;2022-10-16T17:47:08;15.80;99.90
3713;DHT22;1872;51.406;6.856;2022-10-16T17:49:34;15.80;99.90
3713;DHT22;1872;51.406;6.856;2022-10-16T17:51:59;15.80;99.90
3713;DHT22;1872;51.406;6.856;2022-10-16T17:54:27;15.80;99.90
3713;DHT22;1872;51.406;6.856;2022-10-16T17:56:53;15.70;99.90
3713;DHT22;1872;51.406;6.856;2022-10-16T17:59:19;15.70;99.90
3713;DHT22;1872;51.406;6.856;2022-10-16T18:01:47;15.70;99.90
3713;DHT22;1872;51.406;6.856;2022-10-16T18:04:16;15.70;99.90